sensor_id;sensor_type;location;lat;lon;timestamp;P1;durP1;ratioP1;P2;durP2;ratioP2
20623;SDS011;10471;42.736;23.346;2023-02-07T00:01:28;13.77;;;7.83;;
20623;SDS011;10471;42.736;23.346;2023-02-07T00:03:55;17.20;;;8.90;;
20623;SDS011;10471;42.736;23.346;2023-02-07T00:06:22;18.87;;;8.67;;
20623;SDS011;10471;42.736;23.346;2023-02-07T00:08:50;16.30;;;8.63;;
20623;SDS011;10471;42.736;23.346;2023-02-07T00:11:16;17.33;;;9.07;;
20623;SDS011;10471;42.736;23.346;2023-02-07T00:13:44;23.30;;;10.70;;
20623;SDS011;10471;42.736;23.346;2023-02-07T00:16:11;12.60;;;7.00;;
20623;SDS011;10471;42.736;23.346;2023-02-07T00:18:37;10.37;;;6.00;;
20623;SDS011;10471;42.736;23.346;2023-02-07T00:21:04;15.57;;;7.87;;
20623;SDS011;10471;42.736;23.346;2023-02-07T00:23:31;9.60;;;5.67;;
20623;SDS011;10471;42.736;23.346;2023-02-07T00:25:58;10.40;;;5.87;;
20623;SDS011;10471;42.736;23.346;2023-02-07T00:28:23;10.60;;;5.67;;
20623;SDS011;10471;42.736;23.346;2023-02-07T00:30:49;10.23;;;5.00;;
20623;SDS011;10471;42.736;23.346;2023-02-07T00:33:14;10.13;;;5.30;;
20623;SDS011;10471;42.736;23.346;2023-02-07T00:35:40;6.27;;;4.30;;
20623;SDS011;10471;42.736;23.346;2023-02-07T00:38:05;9.00;;;4.63;;
20623;SDS011;10471;42.736;23.346;2023-02-07T00:40:31;8.10;;;4.73;;
20623;SDS011;10471;42.736;23.346;2023-02-07T00:42:56;8.90;;;5.17;;
20623;SDS011;10471;42.736;23.346;2023-02-07T00:45:22;8.37;;;4.63;;
20623;SDS011;10471;42.736;23.346;2023-02-07T00:47:47;8.93;;;5.57;;
20623;SDS011;10471;42.736;23.346;2023-02-07T00:50:12;9.93;;;5.13;;
20623;SDS011;10471;42.736;23.346;2023-02-07T00:52:38;9.40;;;5.57;;
20623;SDS011;10471;42.736;23.346;2023-02-07T00:55:03;9.97;;;5.07;;
20623;SDS011;10471;42.736;23.346;2023-02-07T00:57:29;9.13;;;5.43;;
20623;SDS011;10471;42.736;23.346;2023-02-07T00:59:54;9.43;;;5.50;;
20623;SDS011;10471;42.736;23.346;2023-02-07T01:02:20;8.27;;;4.63;;
20623;SDS011;10471;42.736;23.346;2023-02-07T01:04:45;9.40;;;5.20;;
20623;SDS011;10471;42.736;23.346;2023-02-07T01:07:11;10.80;;;5.57;;
20623;SDS011;10471;42.736;23.346;2023-02-07T01:09:36;9.57;;;5.63;;
20623;SDS011;10471;42.736;23.346;2023-02-07T01:12:01;10.40;;;6.37;;
20623;SDS011;10471;42.736;23.346;2023-02-07T01:14:27;9.37;;;5.77;;
20623;SDS011;10471;42.736;23.346;2023-02-07T01:16:52;10.47;;;5.67;;
20623;SDS011;10471;42.736;23.346;2023-02-07T01:19:18;10.33;;;6.40;;
20623;SDS011;10471;42.736;23.346;2023-02-07T01:21:44;20.03;;;9.17;;
20623;SDS011;10471;42.736;23.346;2023-02-07T01:24:09;13.47;;;6.70;;
20623;SDS011;10471;42.736;23.346;2023-02-07T01:26:35;12.23;;;6.30;;
20623;SDS011;10471;42.736;23.346;2023-02-07T01:29:02;13.27;;;7.47;;
20623;SDS011;10471;42.736;23.346;2023-02-07T01:31:27;17.43;;;7.60;;
20623;SDS011;10471;42.736;23.346;2023-02-07T01:33:54;19.37;;;9.67;;
20623;SDS011;10471;42.736;23.346;2023-02-07T01:36:20;17.57;;;9.97;;
20623;SDS011;10471;42.736;23.346;2023-02-07T01:38:46;17.27;;;8.50;;
20623;SDS011;10471;42.736;23.346;2023-02-07T01:41:12;15.57;;;7.83;;
20623;SDS011;10471;42.736;23.346;2023-02-07T01:43:57;15.17;;;7.63;;
20623;SDS011;10471;42.736;23.346;2023-02-07T01:46:31;11.80;;;6.53;;
20623;SDS011;10471;42.736;23.346;2023-02-07T01:48:59;13.40;;;7.40;;
20623;SDS011;10471;42.736;23.346;2023-02-07T01:51:29;13.53;;;6.50;;
20623;SDS011;10471;42.736;23.346;2023-02-07T01:53:56;10.70;;;6.23;;
20623;SDS011;10471;42.736;23.346;2023-02-07T01:56:26;15.60;;;7.97;;
20623;SDS011;10471;42.736;23.346;2023-02-07T01:58:52;17.93;;;8.60;;
20623;SDS011;10471;42.736;23.346;2023-02-07T02:01:21;13.20;;;6.53;;
20623;SDS011;10471;42.736;23.346;2023-02-07T02:03:50;16.33;;;7.87;;
20623;SDS011;10471;42.736;23.346;2023-02-07T02:06:17;12.10;;;6.53;;
20623;SDS011;10471;42.736;23.346;2023-02-07T02:08:44;22.43;;;10.77;;
20623;SDS011;10471;42.736;23.346;2023-02-07T02:16:49;13.83;;;8.97;;
20623;SDS011;10471;42.736;23.346;2023-02-07T02:19:30;10.57;;;7.13;;
20623;SDS011;10471;42.736;23.346;2023-02-07T02:35:44;13.03;;;6.20;;
20623;SDS011;10471;42.736;23.346;2023-02-07T02:38:41;9.30;;;5.40;;
20623;SDS011;10471;42.736;23.346;2023-02-07T02:44:17;14.10;;;6.50;;
20623;SDS011;10471;42.736;23.346;2023-02-07T02:46:50;11.70;;;5.67;;
20623;SDS011;10471;42.736;23.346;2023-02-07T02:49:18;12.97;;;6.63;;
20623;SDS011;10471;42.736;23.346;2023-02-07T02:51:48;12.60;;;6.57;;
20623;SDS011;10471;42.736;23.346;2023-02-07T02:54:34;11.57;;;6.53;;
20623;SDS011;10471;42.736;23.346;2023-02-07T03:21:14;14.83;;;6.60;;
20623;SDS011;10471;42.736;23.346;2023-02-07T03:23:48;12.00;;;4.97;;
20623;SDS011;10471;42.736;23.346;2023-02-07T03:26:17;11.33;;;5.60;;
20623;SDS011;10471;42.736;23.346;2023-02-07T03:28:45;13.53;;;6.33;;
20623;SDS011;10471;42.736;23.346;2023-02-07T03:31:13;9.03;;;5.23;;
20623;SDS011;10471;42.736;23.346;2023-02-07T03:33:41;11.30;;;5.80;;
20623;SDS011;10471;42.736;23.346;2023-02-07T03:36:14;11.60;;;7.03;;
20623;SDS011;10471;42.736;23.346;2023-02-07T03:38:46;12.43;;;6.37;;
20623;SDS011;10471;42.736;23.346;2023-02-07T03:41:28;12.07;;;6.13;;
20623;SDS011;10471;42.736;23.346;2023-02-07T03:43:59;9.33;;;5.17;;
20623;SDS011;10471;42.736;23.346;2023-02-07T03:46:33;12.47;;;6.23;;
20623;SDS011;10471;42.736;23.346;2023-02-07T03:49:00;12.87;;;6.93;;
20623;SDS011;10471;42.736;23.346;2023-02-07T03:51:26;13.60;;;7.33;;
20623;SDS011;10471;42.736;23.346;2023-02-07T03:53:51;13.00;;;6.70;;
20623;SDS011;10471;42.736;23.346;2023-02-07T03:56:16;12.03;;;7.20;;
20623;SDS011;10471;42.736;23.346;2023-02-07T03:58:42;13.17;;;6.80;;
20623;SDS011;10471;42.736;23.346;2023-02-07T04:01:07;12.80;;;6.93;;
20623;SDS011;10471;42.736;23.346;2023-02-07T04:03:32;16.53;;;7.67;;
20623;SDS011;10471;42.736;23.346;2023-02-07T04:05:58;13.67;;;7.00;;
20623;SDS011;10471;42.736;23.346;2023-02-07T04:08:23;13.40;;;7.00;;
20623;SDS011;10471;42.736;23.346;2023-02-07T04:10:55;11.00;;;6.03;;
20623;SDS011;10471;42.736;23.346;2023-02-07T04:13:22;13.43;;;6.70;;
20623;SDS011;10471;42.736;23.346;2023-02-07T04:15:47;14.00;;;7.63;;
20623;SDS011;10471;42.736;23.346;2023-02-07T04:18:13;13.60;;;7.00;;
20623;SDS011;10471;42.736;23.346;2023-02-07T04:20:38;12.43;;;6.73;;
20623;SDS011;10471;42.736;23.346;2023-02-07T04:23:03;17.40;;;7.20;;
20623;SDS011;10471;42.736;23.346;2023-02-07T04:25:29;11.37;;;6.53;;
20623;SDS011;10471;42.736;23.346;2023-02-07T04:27:54;12.17;;;7.13;;
20623;SDS011;10471;42.736;23.346;2023-02-07T04:30:19;14.63;;;7.00;;
20623;SDS011;10471;42.736;23.346;2023-02-07T04:32:45;14.10;;;7.33;;
20623;SDS011;10471;42.736;23.346;2023-02-07T04:35:10;16.83;;;8.40;;
20623;SDS011;10471;42.736;23.346;2023-02-07T04:37:36;16.67;;;8.33;;
20623;SDS011;10471;42.736;23.346;2023-02-07T04:40:01;14.30;;;8.03;;
20623;SDS011;10471;42.736;23.346;2023-02-07T04:42:26;15.07;;;6.93;;
20623;SDS011;10471;42.736;23.346;2023-02-07T04:44:52;14.60;;;7.70;;
20623;SDS011;10471;42.736;23.346;2023-02-07T04:47:17;13.00;;;7.30;;
20623;SDS011;10471;42.736;23.346;2023-02-07T04:49:42;11.63;;;6.90;;
20623;SDS011;10471;42.736;23.346;2023-02-07T04:52:08;15.27;;;7.90;;
20623;SDS011;10471;42.736;23.346;2023-02-07T04:54:33;20.60;;;9.87;;
20623;SDS011;10471;42.736;23.346;2023-02-07T04:56:59;19.77;;;8.80;;
20623;SDS011;10471;42.736;23.346;2023-02-07T04:59:24;65.13;;;23.27;;
20623;SDS011;10471;42.736;23.346;2023-02-07T05:01:49;41.80;;;17.70;;
20623;SDS011;10471;42.736;23.346;2023-02-07T05:04:15;215.60;;;63.27;;
20623;SDS011;10471;42.736;23.346;2023-02-07T05:06:40;68.60;;;23.10;;
20623;SDS011;10471;42.736;23.346;2023-02-07T05:09:06;48.60;;;16.30;;
20623;SDS011;10471;42.736;23.346;2023-02-07T05:11:31;19.80;;;10.03;;
20623;SDS011;10471;42.736;23.346;2023-02-07T05:13:56;36.83;;;16.63;;
20623;SDS011;10471;42.736;23.346;2023-02-07T05:16:22;29.10;;;12.83;;
20623;SDS011;10471;42.736;23.346;2023-02-07T05:18:47;19.13;;;10.00;;
20623;SDS011;10471;42.736;23.346;2023-02-07T05:21:12;38.73;;;16.70;;
20623;SDS011;10471;42.736;23.346;2023-02-07T05:23:38;75.13;;;27.67;;
20623;SDS011;10471;42.736;23.346;2023-02-07T05:26:03;76.37;;;27.80;;
20623;SDS011;10471;42.736;23.346;2023-02-07T05:28:29;65.07;;;22.90;;
20623;SDS011;10471;42.736;23.346;2023-02-07T05:30:54;70.50;;;25.90;;
20623;SDS011;10471;42.736;23.346;2023-02-07T05:33:20;49.87;;;23.53;;
20623;SDS011;10471;42.736;23.346;2023-02-07T05:35:45;48.37;;;20.53;;
20623;SDS011;10471;42.736;23.346;2023-02-07T05:38:12;62.53;;;25.93;;
20623;SDS011;10471;42.736;23.346;2023-02-07T05:40:39;61.80;;;29.50;;
20623;SDS011;10471;42.736;23.346;2023-02-07T05:43:06;42.03;;;22.43;;
20623;SDS011;10471;42.736;23.346;2023-02-07T05:45:32;68.47;;;24.17;;
20623;SDS011;10471;42.736;23.346;2023-02-07T05:47:58;50.40;;;18.57;;
20623;SDS011;10471;42.736;23.346;2023-02-07T05:50:23;42.37;;;18.33;;
20623;SDS011;10471;42.736;23.346;2023-02-07T05:52:49;44.37;;;18.00;;
20623;SDS011;10471;42.736;23.346;2023-02-07T05:55:14;38.80;;;18.37;;
20623;SDS011;10471;42.736;23.346;2023-02-07T05:57:40;59.50;;;22.93;;
20623;SDS011;10471;42.736;23.346;2023-02-07T06:00:07;69.10;;;28.50;;
20623;SDS011;10471;42.736;23.346;2023-02-07T06:02:37;44.40;;;21.37;;
20623;SDS011;10471;42.736;23.346;2023-02-07T06:05:03;43.47;;;21.33;;
20623;SDS011;10471;42.736;23.346;2023-02-07T06:07:28;47.50;;;23.77;;
20623;SDS011;10471;42.736;23.346;2023-02-07T06:09:54;41.60;;;20.83;;
20623;SDS011;10471;42.736;23.346;2023-02-07T06:12:19;43.20;;;18.97;;
20623;SDS011;10471;42.736;23.346;2023-02-07T06:14:44;42.77;;;19.93;;
20623;SDS011;10471;42.736;23.346;2023-02-07T06:17:10;34.37;;;17.37;;
20623;SDS011;10471;42.736;23.346;2023-02-07T06:19:35;47.27;;;20.47;;
20623;SDS011;10471;42.736;23.346;2023-02-07T06:22:00;42.03;;;18.93;;
20623;SDS011;10471;42.736;23.346;2023-02-07T06:24:26;36.43;;;18.87;;
20623;SDS011;10471;42.736;23.346;2023-02-07T06:26:51;46.10;;;19.90;;
20623;SDS011;10471;42.736;23.346;2023-02-07T06:29:17;44.83;;;19.07;;
20623;SDS011;10471;42.736;23.346;2023-02-07T06:31:42;38.57;;;18.53;;
20623;SDS011;10471;42.736;23.346;2023-02-07T06:34:08;34.73;;;18.23;;
20623;SDS011;10471;42.736;23.346;2023-02-07T06:36:33;32.93;;;17.77;;
20623;SDS011;10471;42.736;23.346;2023-02-07T06:38:58;35.17;;;17.23;;
20623;SDS011;10471;42.736;23.346;2023-02-07T06:41:24;34.80;;;15.50;;
20623;SDS011;10471;42.736;23.346;2023-02-07T06:43:49;54.37;;;23.83;;
20623;SDS011;10471;42.736;23.346;2023-02-07T06:46:15;38.27;;;17.43;;
20623;SDS011;10471;42.736;23.346;2023-02-07T06:48:40;34.17;;;17.73;;
20623;SDS011;10471;42.736;23.346;2023-02-07T06:51:06;32.07;;;17.27;;
20623;SDS011;10471;42.736;23.346;2023-02-07T06:53:31;30.60;;;15.67;;
20623;SDS011;10471;42.736;23.346;2023-02-07T06:55:56;31.20;;;16.53;;
20623;SDS011;10471;42.736;23.346;2023-02-07T06:58:22;31.67;;;17.37;;
20623;SDS011;10471;42.736;23.346;2023-02-07T07:00:47;35.70;;;18.80;;
20623;SDS011;10471;42.736;23.346;2023-02-07T07:03:13;42.40;;;19.20;;
20623;SDS011;10471;42.736;23.346;2023-02-07T07:05:40;44.17;;;19.20;;
20623;SDS011;10471;42.736;23.346;2023-02-07T07:08:06;46.53;;;21.70;;
20623;SDS011;10471;42.736;23.346;2023-02-07T07:10:32;35.33;;;19.97;;
20623;SDS011;10471;42.736;23.346;2023-02-07T07:12:58;37.70;;;17.57;;
20623;SDS011;10471;42.736;23.346;2023-02-07T07:15:23;32.20;;;18.47;;
20623;SDS011;10471;42.736;23.346;2023-02-07T07:17:49;30.83;;;15.67;;
20623;SDS011;10471;42.736;23.346;2023-02-07T07:20:15;34.77;;;17.10;;
20623;SDS011;10471;42.736;23.346;2023-02-07T07:22:40;77.93;;;31.47;;
20623;SDS011;10471;42.736;23.346;2023-02-07T07:25:05;42.10;;;19.93;;
20623;SDS011;10471;42.736;23.346;2023-02-07T07:27:31;33.47;;;17.93;;
20623;SDS011;10471;42.736;23.346;2023-02-07T07:29:56;29.37;;;16.17;;
20623;SDS011;10471;42.736;23.346;2023-02-07T07:32:22;26.93;;;15.17;;
20623;SDS011;10471;42.736;23.346;2023-02-07T07:34:47;27.50;;;15.17;;
20623;SDS011;10471;42.736;23.346;2023-02-07T07:37:14;30.33;;;14.73;;
20623;SDS011;10471;42.736;23.346;2023-02-07T07:39:40;29.67;;;14.83;;
20623;SDS011;10471;42.736;23.346;2023-02-07T07:42:05;29.60;;;16.00;;
20623;SDS011;10471;42.736;23.346;2023-02-07T07:44:31;32.03;;;18.70;;
20623;SDS011;10471;42.736;23.346;2023-02-07T07:46:56;31.43;;;16.60;;
20623;SDS011;10471;42.736;23.346;2023-02-07T07:49:22;36.53;;;17.30;;
20623;SDS011;10471;42.736;23.346;2023-02-07T07:51:47;25.60;;;14.47;;
20623;SDS011;10471;42.736;23.346;2023-02-07T07:54:13;35.83;;;17.70;;
20623;SDS011;10471;42.736;23.346;2023-02-07T07:56:39;29.83;;;16.17;;
20623;SDS011;10471;42.736;23.346;2023-02-07T07:59:04;34.67;;;18.47;;
20623;SDS011;10471;42.736;23.346;2023-02-07T08:01:30;27.80;;;15.13;;
20623;SDS011;10471;42.736;23.346;2023-02-07T08:03:55;29.43;;;16.17;;
20623;SDS011;10471;42.736;23.346;2023-02-07T08:06:20;24.13;;;13.70;;
20623;SDS011;10471;42.736;23.346;2023-02-07T08:08:46;28.27;;;13.23;;
20623;SDS011;10471;42.736;23.346;2023-02-07T08:11:11;21.90;;;12.17;;
20623;SDS011;10471;42.736;23.346;2023-02-07T08:13:37;24.40;;;13.10;;
20623;SDS011;10471;42.736;23.346;2023-02-07T08:16:03;27.43;;;14.33;;
20623;SDS011;10471;42.736;23.346;2023-02-07T08:18:32;26.87;;;13.07;;
20623;SDS011;10471;42.736;23.346;2023-02-07T08:20:58;29.07;;;14.80;;
20623;SDS011;10471;42.736;23.346;2023-02-07T08:23:23;29.00;;;15.43;;
20623;SDS011;10471;42.736;23.346;2023-02-07T08:25:49;24.10;;;13.83;;
20623;SDS011;10471;42.736;23.346;2023-02-07T08:28:14;26.07;;;13.77;;
20623;SDS011;10471;42.736;23.346;2023-02-07T08:30:40;22.97;;;14.10;;
20623;SDS011;10471;42.736;23.346;2023-02-07T08:33:06;25.10;;;13.37;;
20623;SDS011;10471;42.736;23.346;2023-02-07T08:35:31;23.70;;;13.53;;
20623;SDS011;10471;42.736;23.346;2023-02-07T08:37:57;29.43;;;15.67;;
20623;SDS011;10471;42.736;23.346;2023-02-07T08:40:23;28.13;;;15.13;;
20623;SDS011;10471;42.736;23.346;2023-02-07T08:42:48;39.93;;;20.83;;
20623;SDS011;10471;42.736;23.346;2023-02-07T08:45:14;41.40;;;18.63;;
20623;SDS011;10471;42.736;23.346;2023-02-07T08:47:41;39.20;;;18.07;;
20623;SDS011;10471;42.736;23.346;2023-02-07T08:50:07;31.17;;;13.93;;
20623;SDS011;10471;42.736;23.346;2023-02-07T08:52:33;40.93;;;15.57;;
20623;SDS011;10471;42.736;23.346;2023-02-07T08:54:59;27.30;;;13.27;;
20623;SDS011;10471;42.736;23.346;2023-02-07T08:57:24;19.23;;;10.83;;
20623;SDS011;10471;42.736;23.346;2023-02-07T08:59:50;37.57;;;16.80;;
20623;SDS011;10471;42.736;23.346;2023-02-07T09:02:19;24.60;;;12.97;;
20623;SDS011;10471;42.736;23.346;2023-02-07T09:04:44;27.67;;;14.77;;
20623;SDS011;10471;42.736;23.346;2023-02-07T09:07:10;27.10;;;14.37;;
20623;SDS011;10471;42.736;23.346;2023-02-07T09:09:36;28.23;;;15.20;;
20623;SDS011;10471;42.736;23.346;2023-02-07T09:12:02;24.27;;;13.20;;
20623;SDS011;10471;42.736;23.346;2023-02-07T09:14:27;29.37;;;13.10;;
20623;SDS011;10471;42.736;23.346;2023-02-07T09:16:53;23.40;;;12.37;;
20623;SDS011;10471;42.736;23.346;2023-02-07T09:19:18;22.93;;;13.03;;
20623;SDS011;10471;42.736;23.346;2023-02-07T09:21:43;24.03;;;12.77;;
20623;SDS011;10471;42.736;23.346;2023-02-07T09:24:09;28.93;;;13.70;;
20623;SDS011;10471;42.736;23.346;2023-02-07T09:26:34;29.03;;;13.03;;
20623;SDS011;10471;42.736;23.346;2023-02-07T09:29:00;24.47;;;12.63;;
20623;SDS011;10471;42.736;23.346;2023-02-07T09:31:26;27.70;;;13.37;;
20623;SDS011;10471;42.736;23.346;2023-02-07T09:33:51;26.77;;;14.27;;
20623;SDS011;10471;42.736;23.346;2023-02-07T09:38:44;23.67;;;13.37;;
20623;SDS011;10471;42.736;23.346;2023-02-07T09:41:14;29.70;;;15.20;;
20623;SDS011;10471;42.736;23.346;2023-02-07T09:43:55;24.47;;;14.60;;
20623;SDS011;10471;42.736;23.346;2023-02-07T09:46:28;25.87;;;14.57;;
20623;SDS011;10471;42.736;23.346;2023-02-07T09:51:33;22.57;;;11.90;;
20623;SDS011;10471;42.736;23.346;2023-02-07T09:54:02;30.03;;;14.77;;
20623;SDS011;10471;42.736;23.346;2023-02-07T09:56:31;30.77;;;15.37;;
20623;SDS011;10471;42.736;23.346;2023-02-07T10:02:00;24.93;;;14.37;;
20623;SDS011;10471;42.736;23.346;2023-02-07T10:04:37;24.57;;;13.17;;
20623;SDS011;10471;42.736;23.346;2023-02-07T10:07:05;24.67;;;13.03;;
20623;SDS011;10471;42.736;23.346;2023-02-07T10:09:35;25.20;;;12.90;;
20623;SDS011;10471;42.736;23.346;2023-02-07T10:21:01;35.10;;;16.80;;
20623;SDS011;10471;42.736;23.346;2023-02-07T10:32:10;25.00;;;13.60;;
20623;SDS011;10471;42.736;23.346;2023-02-07T10:34:40;26.87;;;15.20;;
20623;SDS011;10471;42.736;23.346;2023-02-07T10:37:23;22.63;;;12.63;;
20623;SDS011;10471;42.736;23.346;2023-02-07T10:39:59;23.83;;;13.37;;
20623;SDS011;10471;42.736;23.346;2023-02-07T10:42:29;26.50;;;13.30;;
20623;SDS011;10471;42.736;23.346;2023-02-07T10:44:57;25.90;;;13.53;;
20623;SDS011;10471;42.736;23.346;2023-02-07T10:47:23;22.90;;;14.70;;
20623;SDS011;10471;42.736;23.346;2023-02-07T10:49:50;24.67;;;13.10;;
20623;SDS011;10471;42.736;23.346;2023-02-07T10:52:33;22.80;;;12.30;;
20623;SDS011;10471;42.736;23.346;2023-02-07T10:55:02;52.00;;;22.13;;
20623;SDS011;10471;42.736;23.346;2023-02-07T10:57:30;73.20;;;30.80;;
20623;SDS011;10471;42.736;23.346;2023-02-07T11:00:00;24.23;;;12.87;;
20623;SDS011;10471;42.736;23.346;2023-02-07T11:04:52;26.47;;;15.40;;
20623;SDS011;10471;42.736;23.346;2023-02-07T11:07:17;22.70;;;12.20;;
20623;SDS011;10471;42.736;23.346;2023-02-07T11:09:45;29.03;;;14.60;;
20623;SDS011;10471;42.736;23.346;2023-02-07T11:12:17;21.53;;;11.07;;
20623;SDS011;10471;42.736;23.346;2023-02-07T11:15:00;22.50;;;12.10;;
20623;SDS011;10471;42.736;23.346;2023-02-07T11:17:27;64.10;;;37.47;;
20623;SDS011;10471;42.736;23.346;2023-02-07T11:19:53;19.33;;;11.97;;
20623;SDS011;10471;42.736;23.346;2023-02-07T11:22:20;17.53;;;9.87;;
20623;SDS011;10471;42.736;23.346;2023-02-07T11:24:49;21.37;;;12.63;;
20623;SDS011;10471;42.736;23.346;2023-02-07T11:27:18;24.60;;;11.27;;
20623;SDS011;10471;42.736;23.346;2023-02-07T11:29:50;20.50;;;11.03;;
20623;SDS011;10471;42.736;23.346;2023-02-07T11:32:19;19.13;;;11.73;;
20623;SDS011;10471;42.736;23.346;2023-02-07T11:37:23;18.83;;;10.50;;
20623;SDS011;10471;42.736;23.346;2023-02-07T11:39:55;17.37;;;10.37;;
20623;SDS011;10471;42.736;23.346;2023-02-07T11:42:39;24.53;;;12.07;;
20623;SDS011;10471;42.736;23.346;2023-02-07T11:45:11;43.17;;;18.53;;
20623;SDS011;10471;42.736;23.346;2023-02-07T11:47:43;34.73;;;16.10;;
20623;SDS011;10471;42.736;23.346;2023-02-07T11:50:29;29.37;;;13.30;;
20623;SDS011;10471;42.736;23.346;2023-02-07T11:52:58;19.10;;;11.77;;
20623;SDS011;10471;42.736;23.346;2023-02-07T11:55:26;23.63;;;13.13;;
20623;SDS011;10471;42.736;23.346;2023-02-07T11:57:56;24.87;;;13.33;;
20623;SDS011;10471;42.736;23.346;2023-02-07T12:00:23;19.17;;;11.93;;
20623;SDS011;10471;42.736;23.346;2023-02-07T12:02:59;21.27;;;10.63;;
20623;SDS011;10471;42.736;23.346;2023-02-07T12:05:32;20.73;;;11.63;;
20623;SDS011;10471;42.736;23.346;2023-02-07T12:08:02;31.07;;;13.20;;
20623;SDS011;10471;42.736;23.346;2023-02-07T12:10:34;31.90;;;15.00;;
20623;SDS011;10471;42.736;23.346;2023-02-07T12:15:38;27.47;;;13.43;;
20623;SDS011;10471;42.736;23.346;2023-02-07T12:20:35;22.53;;;10.67;;
20623;SDS011;10471;42.736;23.346;2023-02-07T12:23:06;16.83;;;10.40;;
20623;SDS011;10471;42.736;23.346;2023-02-07T12:25:36;23.33;;;14.00;;
20623;SDS011;10471;42.736;23.346;2023-02-07T12:28:14;20.77;;;11.10;;
20623;SDS011;10471;42.736;23.346;2023-02-07T12:30:50;24.03;;;11.80;;
20623;SDS011;10471;42.736;23.346;2023-02-07T12:33:19;26.00;;;13.97;;
20623;SDS011;10471;42.736;23.346;2023-02-07T12:38:42;17.53;;;11.80;;
20623;SDS011;10471;42.736;23.346;2023-02-07T12:41:27;18.23;;;11.17;;
20623;SDS011;10471;42.736;23.346;2023-02-07T12:44:03;20.70;;;10.80;;
20623;SDS011;10471;42.736;23.346;2023-02-07T12:46:33;21.33;;;11.83;;
20623;SDS011;10471;42.736;23.346;2023-02-07T12:52:17;21.67;;;12.77;;
20623;SDS011;10471;42.736;23.346;2023-02-07T13:00:47;22.93;;;12.73;;
20623;SDS011;10471;42.736;23.346;2023-02-07T13:03:24;26.47;;;14.63;;
20623;SDS011;10471;42.736;23.346;2023-02-07T13:25:11;17.20;;;9.83;;
20623;SDS011;10471;42.736;23.346;2023-02-07T13:27:43;19.07;;;9.83;;
20623;SDS011;10471;42.736;23.346;2023-02-07T13:30:13;47.90;;;18.87;;
20623;SDS011;10471;42.736;23.346;2023-02-07T13:32:41;30.60;;;15.00;;
20623;SDS011;10471;42.736;23.346;2023-02-07T13:35:22;21.40;;;13.00;;
20623;SDS011;10471;42.736;23.346;2023-02-07T13:37:54;10.10;;;6.43;;
20623;SDS011;10471;42.736;23.346;2023-02-07T13:42:59;10.43;;;6.97;;
20623;SDS011;10471;42.736;23.346;2023-02-07T13:51:19;21.77;;;11.37;;
20623;SDS011;10471;42.736;23.346;2023-02-07T13:54:06;18.97;;;9.80;;
20623;SDS011;10471;42.736;23.346;2023-02-07T13:56:55;25.17;;;12.30;;
20623;SDS011;10471;42.736;23.346;2023-02-07T13:59:40;23.00;;;11.93;;
20623;SDS011;10471;42.736;23.346;2023-02-07T14:02:16;18.37;;;10.90;;
20623;SDS011;10471;42.736;23.346;2023-02-07T14:04:47;27.77;;;13.77;;
20623;SDS011;10471;42.736;23.346;2023-02-07T14:07:18;28.23;;;13.67;;
20623;SDS011;10471;42.736;23.346;2023-02-07T14:09:50;24.40;;;12.70;;
20623;SDS011;10471;42.736;23.346;2023-02-07T14:12:17;18.73;;;9.73;;
20623;SDS011;10471;42.736;23.346;2023-02-07T14:14:46;19.50;;;10.90;;
20623;SDS011;10471;42.736;23.346;2023-02-07T14:17:13;18.70;;;11.03;;
20623;SDS011;10471;42.736;23.346;2023-02-07T14:19:59;22.40;;;11.30;;
20623;SDS011;10471;42.736;23.346;2023-02-07T14:27:25;22.40;;;13.17;;
20623;SDS011;10471;42.736;23.346;2023-02-07T14:29:53;23.57;;;12.23;;
20623;SDS011;10471;42.736;23.346;2023-02-07T14:37:48;25.10;;;12.73;;
20623;SDS011;10471;42.736;23.346;2023-02-07T14:40:22;22.87;;;11.77;;
20623;SDS011;10471;42.736;23.346;2023-02-07T14:42:58;22.00;;;12.33;;
20623;SDS011;10471;42.736;23.346;2023-02-07T14:45:32;23.43;;;12.37;;
20623;SDS011;10471;42.736;23.346;2023-02-07T14:47:59;22.30;;;12.37;;
20623;SDS011;10471;42.736;23.346;2023-02-07T14:50:26;21.53;;;13.80;;
20623;SDS011;10471;42.736;23.346;2023-02-07T14:52:57;22.93;;;12.67;;
20623;SDS011;10471;42.736;23.346;2023-02-07T14:58:23;27.90;;;14.57;;
20623;SDS011;10471;42.736;23.346;2023-02-07T15:00:57;28.77;;;13.80;;
20623;SDS011;10471;42.736;23.346;2023-02-07T15:03:24;25.27;;;13.40;;
20623;SDS011;10471;42.736;23.346;2023-02-07T15:05:56;36.80;;;16.33;;
20623;SDS011;10471;42.736;23.346;2023-02-07T15:08:24;40.87;;;20.80;;
20623;SDS011;10471;42.736;23.346;2023-02-07T15:13:36;29.23;;;15.70;;
20623;SDS011;10471;42.736;23.346;2023-02-07T15:16:16;33.67;;;17.30;;
20623;SDS011;10471;42.736;23.346;2023-02-07T15:18:45;31.97;;;16.97;;
20623;SDS011;10471;42.736;23.346;2023-02-07T15:21:18;27.10;;;15.17;;
20623;SDS011;10471;42.736;23.346;2023-02-07T15:23:52;96.60;;;37.47;;
20623;SDS011;10471;42.736;23.346;2023-02-07T15:26:22;108.53;;;41.37;;
20623;SDS011;10471;42.736;23.346;2023-02-07T15:28:55;84.27;;;34.20;;
20623;SDS011;10471;42.736;23.346;2023-02-07T15:31:21;96.97;;;36.53;;
20623;SDS011;10471;42.736;23.346;2023-02-07T15:38:59;24.63;;;15.63;;
20623;SDS011;10471;42.736;23.346;2023-02-07T15:41:28;27.50;;;14.43;;
20623;SDS011;10471;42.736;23.346;2023-02-07T15:44:01;48.07;;;22.10;;
20623;SDS011;10471;42.736;23.346;2023-02-07T15:54:57;48.27;;;20.23;;
20623;SDS011;10471;42.736;23.346;2023-02-07T15:57:27;67.00;;;29.10;;
20623;SDS011;10471;42.736;23.346;2023-02-07T16:00:03;75.87;;;34.43;;
20623;SDS011;10471;42.736;23.346;2023-02-07T16:02:34;58.83;;;29.70;;
20623;SDS011;10471;42.736;23.346;2023-02-07T16:05:11;50.80;;;26.00;;
20623;SDS011;10471;42.736;23.346;2023-02-07T16:07:46;52.57;;;27.37;;
20623;SDS011;10471;42.736;23.346;2023-02-07T16:10:26;40.50;;;19.97;;
20623;SDS011;10471;42.736;23.346;2023-02-07T16:16:27;44.37;;;24.70;;
20623;SDS011;10471;42.736;23.346;2023-02-07T16:18:34;55.17;;;28.80;;
20623;SDS011;10471;42.736;23.346;2023-02-07T16:23:44;42.30;;;21.83;;
20623;SDS011;10471;42.736;23.346;2023-02-07T16:26:11;55.13;;;24.80;;
20623;SDS011;10471;42.736;23.346;2023-02-07T16:28:41;54.77;;;25.77;;
20623;SDS011;10471;42.736;23.346;2023-02-07T16:31:07;74.33;;;34.37;;
20623;SDS011;10471;42.736;23.346;2023-02-07T16:33:33;49.43;;;23.73;;
20623;SDS011;10471;42.736;23.346;2023-02-07T16:35:58;54.47;;;25.83;;
20623;SDS011;10471;42.736;23.346;2023-02-07T16:38:24;59.17;;;28.37;;
20623;SDS011;10471;42.736;23.346;2023-02-07T16:40:49;52.23;;;26.97;;
20623;SDS011;10471;42.736;23.346;2023-02-07T16:43:48;45.47;;;24.17;;
20623;SDS011;10471;42.736;23.346;2023-02-07T16:46:06;57.57;;;29.70;;
20623;SDS011;10471;42.736;23.346;2023-02-07T16:48:32;62.60;;;30.43;;
20623;SDS011;10471;42.736;23.346;2023-02-07T16:50:57;54.23;;;26.13;;
20623;SDS011;10471;42.736;23.346;2023-02-07T16:53:25;58.87;;;27.60;;
20623;SDS011;10471;42.736;23.346;2023-02-07T16:55:54;46.30;;;23.37;;
20623;SDS011;10471;42.736;23.346;2023-02-07T16:58:23;51.37;;;25.70;;